• Join FlightAware (Why Join?)
  • Login
  • US Flag 
07:13PM EDT


 

Airport Tracker/Info


-or-


 

Live Flight TrackerFlight Track Log ✈ JZA8745 ✈ 10-May-2013 ✈ CZBF - CYUL

Flight Track Log - Related Links

Times and Time Zones

All times are in EDT time to prevent confusion due to time zone crossing. See the JZA8745 flight status page for this flight to view local times or setup timezone preferences in your user account.

Time Position Orientation Groundspeed Altitude Reporting Facility
EDT Latitude Longitude Course Direction KTS MPH feet Rate Location/Type
03:00PM 47.5333 -65.8333 240° Southwest 230 265 4,200  Level Moncton Center
03:01PM 47.5000 -65.9167 239° Southwest 200 230 5,000 840 Climbing Moncton Center
03:02PM 47.4833 -66.0000 254° West 200 230 5,900 780 Climbing Moncton Center
03:03PM 47.4667 -66.0500 244° Southwest 200 230 6,600 660 Climbing Moncton Center
03:04PM 47.4333 -66.1500 244° Southwest 200 230 7,300 600 Climbing Moncton Center
03:05PM 47.4167 -66.2333 254° West 210 242 7,900 540 Climbing Moncton Center
03:06PM 47.3797 -66.4062 240° Southwest  Level FlightAware Approximate
03:06PM 47.3833 -66.3000 234° Southwest 210 242 8,400  Level Moncton Center
03:07PM 47.3667 -66.3667 250° West 210 242 8,900 480 Climbing Moncton Center
03:08PM 47.3333 -66.4500 239° Southwest 220 253 9,400 600 Climbing Moncton Center
03:09PM 47.3167 -66.5167 250° West 210 242 10,200 600 Climbing Moncton Center
03:10PM 47.2833 -66.6000 239° Southwest 210 242 10,700 540 Climbing Moncton Center
03:11PM 47.2667 -66.6833 254° West 210 242 11,300 540 Climbing Moncton Center
03:12PM 47.2167 -66.7667 229° Southwest 210 242 11,800 480 Climbing Moncton Center
03:13PM 47.2000 -66.8333 250° West 210 242 12,300 480 Climbing Moncton Center
03:14PM 47.1667 -66.9167 240° Southwest 210 242 12,800 420 Climbing Moncton Center
03:15PM 47.1500 -66.9833 250° West 210 242 13,200 480 Climbing Moncton Center
03:16PM 47.1167 -67.0833 244° Southwest 220 253 13,800 540 Climbing Moncton Center
03:17PM 47.1100 -67.1522 262° West 216 249 14,400 480 Climbing Boston Center
03:18PM 47.0842 -67.2308 244° Southwest 216 249 14,900 420 Climbing Boston Center
03:19PM 47.0564 -67.3067 242° Southwest 216 249 15,300 420 Climbing Boston Center
03:20PM 47.0306 -67.3822 243° Southwest 216 249 15,800 420 Climbing Boston Center
03:21PM 46.9833 -67.4667 231° Southwest 210 242 16,200 540 Climbing Moncton Center
03:22PM 46.9500 -67.5333 234° Southwest 210 242 16,900 600 Climbing Moncton Center
03:23PM 46.9333 -67.6167 254° West 200 230 17,400 480 Climbing Moncton Center
03:24PM 46.9222 -67.6808 256° West 209 241 17,900 480 Climbing Boston Center
03:25PM 46.8958 -67.7558 243° Southwest 209 241 18,400 480 Climbing Boston Center
03:26PM 46.8667 -67.8167 235° Southwest 210 242 18,900 480 Climbing Moncton Center
03:27PM 46.8431 -67.8969 247° West 209 241 19,400 480 Climbing Boston Center
03:28PM 46.8186 -67.9656 243° Southwest 209 241 20,000 540 Climbing Boston Center
03:29PM 46.7886 -68.0531 243° Southwest 224 258 20,500 540 Climbing Boston Center
03:30PM 46.7642 -68.1217 243° Southwest 210 242 21,100 480 Climbing Boston Center
03:31PM 46.7461 -68.1956 250° West 202 232 21,500 420 Climbing Boston Center
03:32PM 46.7236 -68.2700 246° West 197 227 22,000 240 Climbing Boston Center
03:33PM 46.7036 -68.3472 249° West 197 227 22,000  Level Boston Center
03:34PM 46.6772 -68.4278 245° Southwest 207 238 22,000  Level Boston Center
03:35PM 46.6528 -68.5081 246° West 215 247 22,000  Level Boston Center
03:36PM 46.6286 -68.5975 249° West 228 262 22,000  Level Boston Center
03:37PM 46.6044 -68.6808 247° West 228 262 22,000  Level Boston Center
03:38PM 46.5778 -68.7642 245° Southwest 228 262 22,000  Level Boston Center
03:39PM 46.5533 -68.8503 248° West 233 268 22,000  Level Boston Center
03:40PM 46.5289 -68.9303 246° West 233 268 22,000  Level Boston Center
03:41PM 46.5042 -69.0161 247° West 233 268 22,000  Level Boston Center
03:43PM 46.4775 -69.0992 245° Southwest 233 268 22,000  Level Boston Center
03:44PM 46.4486 -69.1853 244° Southwest 233 268 22,000  Level Boston Center
03:45PM 46.4239 -69.2708 247° West 233 268 22,000  Level Boston Center
03:46PM 46.3969 -69.3536 245° Southwest 233 268 22,000  Level Boston Center
03:47PM 46.3758 -69.4211 246° West 233 268 22,000  Level Boston Center
03:48PM 46.3450 -69.5189 245° Southwest 233 268 22,000  Level Boston Center
03:49PM 46.3178 -69.6014 244° Southwest 233 268 22,000  Level Boston Center
03:50PM 46.2892 -69.7019 248° West 233 268 22,000  Level Boston Center
03:51PM 46.2617 -69.7842 244° Southwest 233 268 22,000  Level Boston Center
03:52PM 46.2364 -69.8636 245° Southwest 233 268 22,000  Level Boston Center
03:53PM 46.2114 -69.9486 247° West 233 268 22,000  Level Boston Center
03:54PM 46.1858 -70.0306 246° West 233 268 22,000  Level Boston Center
03:55PM 46.1606 -70.1156 247° West 233 268 22,000  Level Boston Center
03:55PM 46.1333 -70.1333 204° Southwest 230 265 22,000  Level Montreal Center
03:56PM 46.1167 -70.2333 257° West 220 253 22,000  Level Montreal Center
03:57PM 46.0833 -70.3167 240° Southwest 230 265 22,000  Level Montreal Center
03:58PM 46.0500 -70.4333 248° West 230 265 22,000  Level Moncton Center
03:59PM 46.0333 -70.5000 250° West 230 265 22,000  Level Moncton Center
04:00PM 46.0000 -70.5667 234° Southwest 230 265 22,000  Level Moncton Center
04:01PM 45.9667 -70.6667 244° Southwest 230 265 22,000  Level Moncton Center
04:02PM 45.9500 -70.7500 254° West 230 265 22,000  Level Moncton Center
04:03PM 45.9333 -70.8167 250° West 230 265 22,000  Level Moncton Center
04:04PM 45.9000 -70.9167 244° Southwest 230 265 22,000  Level Moncton Center
04:05PM 45.9000 -71.0167 270° West 230 265 22,000  Level Moncton Center
04:06PM 45.9000 -71.1167 270° West 230 265 22,000  Level Moncton Center
04:07PM 45.8833 -71.1833 250° West 230 265 22,000  Level Moncton Center
04:08PM 45.8667 -71.2667 254° West 230 265 22,000  Level Moncton Center
04:09PM 45.8667 -71.3667 270° West 230 265 22,000  Level Moncton Center
04:10PM 45.8500 -71.4667 257° West 230 265 22,000  Level Moncton Center
04:11PM 45.8500 -71.5667 270° West 230 265 22,000  Level Moncton Center
04:12PM 45.8500 -71.6333 270° West 220 253 22,000  Level Moncton Center
04:13PM 45.8333 -71.7333 257° West 220 253 22,000  Level Moncton Center
04:14PM 45.8333 -71.8167 270° West 220 253 22,000  Level Moncton Center
04:15PM 45.8000 -71.9167 244° Southwest 230 265 22,000  Level Moncton Center
04:16PM 45.8000 -71.9833 270° West 220 253 22,000  Level Moncton Center
04:17PM 45.8000 -72.0833 270° West 220 253 22,000 -60 Level Moncton Center
04:18PM 45.7833 -72.1833 257° West 220 253 21,900 -300 Descending Moncton Center
04:19PM 45.7833 -72.2667 270° West 230 265 21,400 -540 Descending Moncton Center
04:20PM 45.7833 -72.3667 270° West 240 276 20,900 -540 Descending Moncton Center
04:21PM 45.7667 -72.4333 250° West 250 288 20,400 -600 Descending Moncton Center
04:22PM 45.7500 -72.5500 258° West 250 288 19,700 -660 Descending Moncton Center
04:23PM 45.7333 -72.6500 257° West 250 288 19,100 -780 Descending Moncton Center
04:24PM 45.7333 -72.7667 270° West 260 299 18,200 -960 Descending Moncton Center
04:25PM 45.7167 -72.8667 257° West 270 311 17,200 -1,140 Descending Moncton Center
04:26PM 45.7167 -72.9667 270° West 270 311 16,000 -1,200 Descending Moncton Center
04:27PM 45.7000 -73.0833 258° West 270 311 14,800 -1,200 Descending Moncton Center
04:28PM 45.6833 -73.1667 254° West 260 299 13,600 -1,200 Descending Moncton Center
04:29PM 45.6333 -73.2667 234° Southwest 260 299 12,400 -1,380 Descending Moncton Center
04:30PM 45.6000 -73.3500 240° Southwest 260 299 10,900 -1,560 Descending Moncton Center
04:31PM 45.5667 -73.4333 240° Southwest 260 299 9,300 -1,500 Descending Moncton Center
04:32PM 45.5167 -73.5000 223° Southwest 250 288 8,000 -660 Descending Moncton Center
04:33PM 45.4667 -73.5667 223° Southwest 250 288 8,000 -540 Level Moncton Center
04:34PM 45.4333 -73.6000 215° Southwest 230 265 7,000 -1,680 Descending Montreal Center
04:35PM 45.3833 -73.6500 215° Southwest 220 253 4,600 -1,680 Descending Montreal Center
04:36PM 45.3333 -73.7333 230° Southwest 220 253 3,700 -1,200 Descending Montreal Center
04:37PM 45.3500 -73.8000 290° West 210 242 2,300 -1,080 Descending Montreal Center
04:38PM 45.3833 -73.8167 341° North 160 184 1,600 -660 Descending Montreal Center
04:39PM 45.4167 -73.8000 19° North 130 150 1,000 -660 Descending Montreal Center
04:40PM 45.4500 -73.7667 35° Northeast 120 138 300 -720 Descending Montreal Center